sensor_id;sensor_type;location;lat;lon;timestamp;P1;durP1;ratioP1;P2;durP2;ratioP2
16784;SDS011;8509;52.178;5.404;2024-03-07T00:00:59;28.40;;;10.65;;
16784;SDS011;8509;52.178;5.404;2024-03-07T00:03:25;27.90;;;11.20;;
16784;SDS011;8509;52.178;5.404;2024-03-07T00:05:51;27.63;;;12.07;;
16784;SDS011;8509;52.178;5.404;2024-03-07T00:08:17;28.23;;;10.75;;
16784;SDS011;8509;52.178;5.404;2024-03-07T00:10:42;27.38;;;11.70;;
16784;SDS011;8509;52.178;5.404;2024-03-07T00:13:09;26.30;;;11.10;;
16784;SDS011;8509;52.178;5.404;2024-03-07T00:15:35;30.45;;;10.88;;
16784;SDS011;8509;52.178;5.404;2024-03-07T00:18:01;32.13;;;12.75;;
16784;SDS011;8509;52.178;5.404;2024-03-07T00:20:27;32.90;;;13.18;;
16784;SDS011;8509;52.178;5.404;2024-03-07T00:22:53;27.70;;;11.05;;
16784;SDS011;8509;52.178;5.404;2024-03-07T00:25:19;24.85;;;10.45;;
16784;SDS011;8509;52.178;5.404;2024-03-07T00:27:45;24.80;;;12.10;;
16784;SDS011;8509;52.178;5.404;2024-03-07T00:30:14;24.65;;;10.90;;
16784;SDS011;8509;52.178;5.404;2024-03-07T00:32:43;28.10;;;13.10;;
16784;SDS011;8509;52.178;5.404;2024-03-07T00:35:09;30.05;;;10.88;;
16784;SDS011;8509;52.178;5.404;2024-03-07T00:37:35;30.13;;;11.65;;
16784;SDS011;8509;52.178;5.404;2024-03-07T00:40:01;35.17;;;12.00;;
16784;SDS011;8509;52.178;5.404;2024-03-07T00:42:28;26.38;;;11.90;;
16784;SDS011;8509;52.178;5.404;2024-03-07T00:44:54;30.98;;;13.13;;
16784;SDS011;8509;52.178;5.404;2024-03-07T00:47:22;23.15;;;10.70;;
16784;SDS011;8509;52.178;5.404;2024-03-07T00:49:48;33.40;;;12.30;;
16784;SDS011;8509;52.178;5.404;2024-03-07T00:52:14;34.65;;;11.18;;
16784;SDS011;8509;52.178;5.404;2024-03-07T00:54:40;31.35;;;14.50;;
16784;SDS011;8509;52.178;5.404;2024-03-07T00:57:06;23.42;;;12.80;;
16784;SDS011;8509;52.178;5.404;2024-03-07T00:59:32;29.33;;;12.13;;
16784;SDS011;8509;52.178;5.404;2024-03-07T01:01:58;30.73;;;11.85;;
16784;SDS011;8509;52.178;5.404;2024-03-07T01:04:25;26.63;;;12.23;;
16784;SDS011;8509;52.178;5.404;2024-03-07T01:06:56;31.95;;;11.15;;
16784;SDS011;8509;52.178;5.404;2024-03-07T01:09:23;25.90;;;12.00;;
16784;SDS011;8509;52.178;5.404;2024-03-07T01:11:48;26.77;;;11.80;;
16784;SDS011;8509;52.178;5.404;2024-03-07T01:14:14;40.95;;;13.55;;
16784;SDS011;8509;52.178;5.404;2024-03-07T01:16:41;28.55;;;10.90;;
16784;SDS011;8509;52.178;5.404;2024-03-07T01:19:07;26.15;;;11.70;;
16784;SDS011;8509;52.178;5.404;2024-03-07T01:21:33;29.48;;;11.80;;
16784;SDS011;8509;52.178;5.404;2024-03-07T01:24:00;19.17;;;11.70;;
16784;SDS011;8509;52.178;5.404;2024-03-07T01:26:32;24.48;;;11.63;;
16784;SDS011;8509;52.178;5.404;2024-03-07T01:29:01;26.50;;;9.80;;
16784;SDS011;8509;52.178;5.404;2024-03-07T01:31:27;28.90;;;10.98;;
16784;SDS011;8509;52.178;5.404;2024-03-07T01:33:52;30.40;;;10.32;;
16784;SDS011;8509;52.178;5.404;2024-03-07T01:36:19;31.55;;;12.07;;
16784;SDS011;8509;52.178;5.404;2024-03-07T01:38:45;30.50;;;11.88;;
16784;SDS011;8509;52.178;5.404;2024-03-07T01:41:11;27.27;;;12.25;;
16784;SDS011;8509;52.178;5.404;2024-03-07T01:43:37;32.38;;;11.48;;
16784;SDS011;8509;52.178;5.404;2024-03-07T01:46:03;29.83;;;10.57;;
16784;SDS011;8509;52.178;5.404;2024-03-07T01:48:29;24.88;;;10.73;;
16784;SDS011;8509;52.178;5.404;2024-03-07T01:50:59;36.08;;;12.25;;
16784;SDS011;8509;52.178;5.404;2024-03-07T01:53:26;25.83;;;11.50;;
16784;SDS011;8509;52.178;5.404;2024-03-07T01:55:53;30.30;;;11.48;;
16784;SDS011;8509;52.178;5.404;2024-03-07T01:58:20;29.55;;;10.52;;
16784;SDS011;8509;52.178;5.404;2024-03-07T02:00:46;28.10;;;11.93;;
16784;SDS011;8509;52.178;5.404;2024-03-07T02:03:13;28.50;;;11.57;;
16784;SDS011;8509;52.178;5.404;2024-03-07T02:05:39;28.77;;;12.57;;
16784;SDS011;8509;52.178;5.404;2024-03-07T02:08:05;30.80;;;12.70;;
16784;SDS011;8509;52.178;5.404;2024-03-07T02:10:31;32.33;;;12.27;;
16784;SDS011;8509;52.178;5.404;2024-03-07T02:12:57;36.97;;;13.77;;
16784;SDS011;8509;52.178;5.404;2024-03-07T02:15:22;32.00;;;11.27;;
16784;SDS011;8509;52.178;5.404;2024-03-07T02:17:48;22.63;;;12.05;;
16784;SDS011;8509;52.178;5.404;2024-03-07T02:20:14;29.75;;;11.48;;
16784;SDS011;8509;52.178;5.404;2024-03-07T02:22:41;25.63;;;12.20;;
16784;SDS011;8509;52.178;5.404;2024-03-07T02:30:45;25.73;;;12.90;;
16784;SDS011;8509;52.178;5.404;2024-03-07T02:43:18;24.92;;;11.48;;
16784;SDS011;8509;52.178;5.404;2024-03-07T02:45:43;33.55;;;12.38;;
16784;SDS011;8509;52.178;5.404;2024-03-07T02:48:09;19.75;;;10.75;;
16784;SDS011;8509;52.178;5.404;2024-03-07T02:50:35;30.08;;;12.38;;
16784;SDS011;8509;52.178;5.404;2024-03-07T02:53:04;30.85;;;12.35;;
16784;SDS011;8509;52.178;5.404;2024-03-07T02:55:30;38.50;;;12.57;;
16784;SDS011;8509;52.178;5.404;2024-03-07T02:57:57;36.00;;;13.13;;
16784;SDS011;8509;52.178;5.404;2024-03-07T03:00:24;31.77;;;13.52;;
16784;SDS011;8509;52.178;5.404;2024-03-07T03:02:54;31.75;;;12.85;;
16784;SDS011;8509;52.178;5.404;2024-03-07T03:05:22;42.08;;;12.38;;
16784;SDS011;8509;52.178;5.404;2024-03-07T03:07:48;29.73;;;14.35;;
16784;SDS011;8509;52.178;5.404;2024-03-07T03:10:21;23.48;;;11.85;;
16784;SDS011;8509;52.178;5.404;2024-03-07T03:12:58;24.20;;;10.90;;
16784;SDS011;8509;52.178;5.404;2024-03-07T03:15:24;29.17;;;11.77;;
16784;SDS011;8509;52.178;5.404;2024-03-07T03:17:50;31.50;;;12.82;;
16784;SDS011;8509;52.178;5.404;2024-03-07T03:20:17;36.08;;;13.52;;
16784;SDS011;8509;52.178;5.404;2024-03-07T03:22:58;30.27;;;13.20;;
16784;SDS011;8509;52.178;5.404;2024-03-07T03:25:25;26.77;;;12.25;;
16784;SDS011;8509;52.178;5.404;2024-03-07T03:27:51;30.80;;;12.02;;
16784;SDS011;8509;52.178;5.404;2024-03-07T03:30:17;25.50;;;10.80;;
16784;SDS011;8509;52.178;5.404;2024-03-07T03:32:46;24.80;;;12.40;;
16784;SDS011;8509;52.178;5.404;2024-03-07T03:35:15;31.38;;;13.50;;
16784;SDS011;8509;52.178;5.404;2024-03-07T03:37:42;31.08;;;12.23;;
16784;SDS011;8509;52.178;5.404;2024-03-07T03:40:08;27.55;;;11.57;;
16784;SDS011;8509;52.178;5.404;2024-03-07T03:42:41;32.45;;;11.13;;
16784;SDS011;8509;52.178;5.404;2024-03-07T03:45:08;29.08;;;12.45;;
16784;SDS011;8509;52.178;5.404;2024-03-07T03:47:36;23.60;;;11.35;;
16784;SDS011;8509;52.178;5.404;2024-03-07T03:50:06;24.58;;;12.43;;
16784;SDS011;8509;52.178;5.404;2024-03-07T03:52:33;34.55;;;12.20;;
16784;SDS011;8509;52.178;5.404;2024-03-07T03:55:03;27.00;;;11.77;;
16784;SDS011;8509;52.178;5.404;2024-03-07T03:57:32;32.40;;;13.32;;
16784;SDS011;8509;52.178;5.404;2024-03-07T03:59:58;39.05;;;12.32;;
16784;SDS011;8509;52.178;5.404;2024-03-07T04:02:24;27.25;;;11.20;;
16784;SDS011;8509;52.178;5.404;2024-03-07T04:04:51;24.23;;;11.60;;
16784;SDS011;8509;52.178;5.404;2024-03-07T04:07:20;20.25;;;9.73;;
16784;SDS011;8509;52.178;5.404;2024-03-07T04:09:46;26.73;;;11.98;;
16784;SDS011;8509;52.178;5.404;2024-03-07T04:12:13;26.27;;;12.23;;
16784;SDS011;8509;52.178;5.404;2024-03-07T04:14:42;25.20;;;11.93;;
16784;SDS011;8509;52.178;5.404;2024-03-07T04:17:08;25.70;;;11.32;;
16784;SDS011;8509;52.178;5.404;2024-03-07T04:19:40;30.25;;;11.15;;
16784;SDS011;8509;52.178;5.404;2024-03-07T04:22:07;37.00;;;13.73;;
16784;SDS011;8509;52.178;5.404;2024-03-07T04:24:36;23.35;;;10.18;;
16784;SDS011;8509;52.178;5.404;2024-03-07T04:27:02;23.80;;;11.27;;
16784;SDS011;8509;52.178;5.404;2024-03-07T04:29:35;33.05;;;13.38;;
16784;SDS011;8509;52.178;5.404;2024-03-07T04:32:01;29.90;;;11.80;;
16784;SDS011;8509;52.178;5.404;2024-03-07T04:34:28;35.42;;;12.38;;
16784;SDS011;8509;52.178;5.404;2024-03-07T04:36:57;27.15;;;12.98;;
16784;SDS011;8509;52.178;5.404;2024-03-07T04:39:24;34.25;;;10.98;;
16784;SDS011;8509;52.178;5.404;2024-03-07T04:42:07;24.70;;;13.07;;
16784;SDS011;8509;52.178;5.404;2024-03-07T04:44:34;33.53;;;12.40;;
16784;SDS011;8509;52.178;5.404;2024-03-07T04:47:02;28.20;;;11.07;;
16784;SDS011;8509;52.178;5.404;2024-03-07T04:49:29;28.70;;;13.65;;
16784;SDS011;8509;52.178;5.404;2024-03-07T04:51:56;29.77;;;12.93;;
16784;SDS011;8509;52.178;5.404;2024-03-07T04:54:23;28.33;;;12.60;;
16784;SDS011;8509;52.178;5.404;2024-03-07T04:56:50;25.55;;;10.50;;
16784;SDS011;8509;52.178;5.404;2024-03-07T04:59:17;30.77;;;12.77;;
16784;SDS011;8509;52.178;5.404;2024-03-07T05:01:44;34.60;;;13.43;;
16784;SDS011;8509;52.178;5.404;2024-03-07T05:04:14;30.10;;;12.48;;
16784;SDS011;8509;52.178;5.404;2024-03-07T05:06:43;26.40;;;12.05;;
16784;SDS011;8509;52.178;5.404;2024-03-07T05:09:12;38.08;;;12.95;;
16784;SDS011;8509;52.178;5.404;2024-03-07T05:11:48;24.48;;;13.05;;
16784;SDS011;8509;52.178;5.404;2024-03-07T05:14:16;32.58;;;12.15;;
16784;SDS011;8509;52.178;5.404;2024-03-07T05:16:42;36.75;;;13.60;;
16784;SDS011;8509;52.178;5.404;2024-03-07T05:19:08;26.17;;;12.80;;
16784;SDS011;8509;52.178;5.404;2024-03-07T05:21:34;33.55;;;11.77;;
16784;SDS011;8509;52.178;5.404;2024-03-07T05:24:09;33.30;;;13.25;;
16784;SDS011;8509;52.178;5.404;2024-03-07T05:26:35;34.75;;;13.20;;
16784;SDS011;8509;52.178;5.404;2024-03-07T05:29:08;25.73;;;11.00;;
16784;SDS011;8509;52.178;5.404;2024-03-07T05:31:38;27.63;;;11.65;;
16784;SDS011;8509;52.178;5.404;2024-03-07T05:34:10;29.95;;;12.88;;
16784;SDS011;8509;52.178;5.404;2024-03-07T05:36:37;21.98;;;10.45;;
16784;SDS011;8509;52.178;5.404;2024-03-07T05:39:10;23.88;;;10.93;;
16784;SDS011;8509;52.178;5.404;2024-03-07T05:41:37;28.23;;;10.52;;
16784;SDS011;8509;52.178;5.404;2024-03-07T05:44:03;24.15;;;10.10;;
16784;SDS011;8509;52.178;5.404;2024-03-07T05:46:33;26.60;;;11.43;;
16784;SDS011;8509;52.178;5.404;2024-03-07T05:49:00;28.73;;;11.65;;
16784;SDS011;8509;52.178;5.404;2024-03-07T05:51:26;34.38;;;13.32;;
16784;SDS011;8509;52.178;5.404;2024-03-07T05:53:52;27.98;;;12.07;;
16784;SDS011;8509;52.178;5.404;2024-03-07T05:56:20;26.08;;;10.00;;
16784;SDS011;8509;52.178;5.404;2024-03-07T05:58:46;27.23;;;11.45;;
16784;SDS011;8509;52.178;5.404;2024-03-07T06:01:11;28.63;;;11.05;;
16784;SDS011;8509;52.178;5.404;2024-03-07T06:03:37;27.98;;;11.68;;
16784;SDS011;8509;52.178;5.404;2024-03-07T06:06:05;32.58;;;12.02;;
16784;SDS011;8509;52.178;5.404;2024-03-07T06:08:36;36.90;;;12.35;;
16784;SDS011;8509;52.178;5.404;2024-03-07T06:11:02;27.95;;;12.70;;
16784;SDS011;8509;52.178;5.404;2024-03-07T06:13:27;28.60;;;12.05;;
16784;SDS011;8509;52.178;5.404;2024-03-07T06:15:53;26.98;;;12.75;;
16784;SDS011;8509;52.178;5.404;2024-03-07T06:18:19;30.08;;;13.65;;
16784;SDS011;8509;52.178;5.404;2024-03-07T06:20:44;30.20;;;11.75;;
16784;SDS011;8509;52.178;5.404;2024-03-07T06:23:10;31.48;;;13.55;;
16784;SDS011;8509;52.178;5.404;2024-03-07T06:25:41;27.27;;;11.53;;
16784;SDS011;8509;52.178;5.404;2024-03-07T06:28:17;32.58;;;11.43;;
16784;SDS011;8509;52.178;5.404;2024-03-07T06:30:46;27.88;;;13.25;;
16784;SDS011;8509;52.178;5.404;2024-03-07T06:33:12;34.95;;;13.60;;
16784;SDS011;8509;52.178;5.404;2024-03-07T06:35:38;34.33;;;14.57;;
16784;SDS011;8509;52.178;5.404;2024-03-07T06:38:06;45.75;;;12.75;;
16784;SDS011;8509;52.178;5.404;2024-03-07T06:40:34;33.30;;;15.07;;
16784;SDS011;8509;52.178;5.404;2024-03-07T06:43:05;28.75;;;11.63;;
16784;SDS011;8509;52.178;5.404;2024-03-07T06:45:37;27.92;;;10.90;;
16784;SDS011;8509;52.178;5.404;2024-03-07T06:48:07;30.50;;;13.85;;
16784;SDS011;8509;52.178;5.404;2024-03-07T06:50:36;26.17;;;13.45;;
16784;SDS011;8509;52.178;5.404;2024-03-07T06:53:06;31.23;;;14.40;;
16784;SDS011;8509;52.178;5.404;2024-03-07T06:55:32;42.60;;;17.95;;
16784;SDS011;8509;52.178;5.404;2024-03-07T06:58:01;28.83;;;13.63;;
16784;SDS011;8509;52.178;5.404;2024-03-07T07:00:29;28.27;;;13.48;;
16784;SDS011;8509;52.178;5.404;2024-03-07T07:03:00;34.67;;;13.57;;
16784;SDS011;8509;52.178;5.404;2024-03-07T07:05:28;33.08;;;13.82;;
16784;SDS011;8509;52.178;5.404;2024-03-07T07:07:55;29.15;;;14.38;;
16784;SDS011;8509;52.178;5.404;2024-03-07T07:10:20;26.02;;;12.82;;
16784;SDS011;8509;52.178;5.404;2024-03-07T07:12:49;35.08;;;13.63;;
16784;SDS011;8509;52.178;5.404;2024-03-07T07:15:15;30.55;;;14.02;;
16784;SDS011;8509;52.178;5.404;2024-03-07T07:17:43;37.70;;;14.38;;
16784;SDS011;8509;52.178;5.404;2024-03-07T07:20:16;30.55;;;12.25;;
16784;SDS011;8509;52.178;5.404;2024-03-07T07:22:44;28.02;;;14.68;;
16784;SDS011;8509;52.178;5.404;2024-03-07T07:25:11;26.25;;;12.93;;
16784;SDS011;8509;52.178;5.404;2024-03-07T07:27:50;23.83;;;12.90;;
16784;SDS011;8509;52.178;5.404;2024-03-07T07:30:19;28.08;;;11.77;;
16784;SDS011;8509;52.178;5.404;2024-03-07T07:32:49;24.05;;;11.82;;
16784;SDS011;8509;52.178;5.404;2024-03-07T07:35:16;26.25;;;11.05;;
16784;SDS011;8509;52.178;5.404;2024-03-07T07:37:43;31.40;;;13.55;;
16784;SDS011;8509;52.178;5.404;2024-03-07T07:40:12;33.22;;;14.15;;
16784;SDS011;8509;52.178;5.404;2024-03-07T07:42:44;26.55;;;12.07;;
16784;SDS011;8509;52.178;5.404;2024-03-07T07:45:11;31.25;;;14.32;;
16784;SDS011;8509;52.178;5.404;2024-03-07T07:50:06;26.52;;;11.82;;
16784;SDS011;8509;52.178;5.404;2024-03-07T07:52:42;33.63;;;12.90;;
16784;SDS011;8509;52.178;5.404;2024-03-07T07:55:25;27.55;;;11.13;;
16784;SDS011;8509;52.178;5.404;2024-03-07T07:57:56;33.25;;;12.52;;
16784;SDS011;8509;52.178;5.404;2024-03-07T08:00:24;32.90;;;14.43;;
16784;SDS011;8509;52.178;5.404;2024-03-07T08:05:31;24.38;;;11.48;;
16784;SDS011;8509;52.178;5.404;2024-03-07T08:07:59;24.85;;;11.98;;
16784;SDS011;8509;52.178;5.404;2024-03-07T08:10:29;20.33;;;10.98;;
16784;SDS011;8509;52.178;5.404;2024-03-07T08:12:55;35.20;;;13.40;;
16784;SDS011;8509;52.178;5.404;2024-03-07T08:15:22;35.78;;;12.32;;
16784;SDS011;8509;52.178;5.404;2024-03-07T08:17:48;27.85;;;12.98;;
16784;SDS011;8509;52.178;5.404;2024-03-07T08:20:16;32.15;;;12.20;;
16784;SDS011;8509;52.178;5.404;2024-03-07T08:22:43;30.27;;;11.55;;
16784;SDS011;8509;52.178;5.404;2024-03-07T08:25:12;36.70;;;13.90;;
16784;SDS011;8509;52.178;5.404;2024-03-07T08:27:39;28.08;;;13.32;;
16784;SDS011;8509;52.178;5.404;2024-03-07T08:30:06;27.63;;;12.23;;
16784;SDS011;8509;52.178;5.404;2024-03-07T08:32:59;27.92;;;11.55;;
16784;SDS011;8509;52.178;5.404;2024-03-07T08:35:27;26.38;;;11.00;;
16784;SDS011;8509;52.178;5.404;2024-03-07T08:37:54;29.00;;;11.50;;
16784;SDS011;8509;52.178;5.404;2024-03-07T08:40:23;22.73;;;10.50;;
16784;SDS011;8509;52.178;5.404;2024-03-07T08:42:51;24.38;;;11.00;;
16784;SDS011;8509;52.178;5.404;2024-03-07T08:45:21;23.23;;;10.38;;
16784;SDS011;8509;52.178;5.404;2024-03-07T08:47:47;17.80;;;9.65;;
16784;SDS011;8509;52.178;5.404;2024-03-07T08:50:15;18.40;;;8.25;;
16784;SDS011;8509;52.178;5.404;2024-03-07T08:52:43;19.60;;;8.05;;
16784;SDS011;8509;52.178;5.404;2024-03-07T08:55:13;15.38;;;7.90;;
16784;SDS011;8509;52.178;5.404;2024-03-07T08:57:40;17.08;;;9.00;;
16784;SDS011;8509;52.178;5.404;2024-03-07T09:00:07;15.90;;;8.30;;
16784;SDS011;8509;52.178;5.404;2024-03-07T09:02:34;15.30;;;8.07;;
16784;SDS011;8509;52.178;5.404;2024-03-07T09:05:01;11.57;;;7.40;;
16784;SDS011;8509;52.178;5.404;2024-03-07T09:07:27;15.90;;;7.90;;
16784;SDS011;8509;52.178;5.404;2024-03-07T09:09:54;11.70;;;6.72;;
16784;SDS011;8509;52.178;5.404;2024-03-07T09:12:20;12.70;;;6.85;;
16784;SDS011;8509;52.178;5.404;2024-03-07T09:14:46;13.60;;;6.82;;
16784;SDS011;8509;52.178;5.404;2024-03-07T09:17:12;13.27;;;6.88;;
16784;SDS011;8509;52.178;5.404;2024-03-07T09:19:38;15.00;;;7.05;;
16784;SDS011;8509;52.178;5.404;2024-03-07T09:22:03;14.75;;;6.63;;
16784;SDS011;8509;52.178;5.404;2024-03-07T09:24:30;10.60;;;5.60;;
16784;SDS011;8509;52.178;5.404;2024-03-07T09:26:56;10.25;;;5.32;;
16784;SDS011;8509;52.178;5.404;2024-03-07T09:29:22;10.93;;;6.28;;
16784;SDS011;8509;52.178;5.404;2024-03-07T09:31:51;9.75;;;6.00;;
16784;SDS011;8509;52.178;5.404;2024-03-07T09:34:18;10.15;;;6.20;;
16784;SDS011;8509;52.178;5.404;2024-03-07T09:36:48;8.93;;;4.95;;
16784;SDS011;8509;52.178;5.404;2024-03-07T09:39:16;9.07;;;5.32;;
16784;SDS011;8509;52.178;5.404;2024-03-07T09:41:45;10.90;;;6.03;;
16784;SDS011;8509;52.178;5.404;2024-03-07T09:44:12;13.60;;;6.28;;
16784;SDS011;8509;52.178;5.404;2024-03-07T09:46:47;12.27;;;5.72;;
16784;SDS011;8509;52.178;5.404;2024-03-07T09:49:24;10.45;;;6.38;;
16784;SDS011;8509;52.178;5.404;2024-03-07T09:51:53;12.80;;;5.47;;
16784;SDS011;8509;52.178;5.404;2024-03-07T09:54:24;11.10;;;5.55;;
16784;SDS011;8509;52.178;5.404;2024-03-07T09:56:51;11.05;;;6.03;;
16784;SDS011;8509;52.178;5.404;2024-03-07T09:59:19;12.70;;;6.38;;
16784;SDS011;8509;52.178;5.404;2024-03-07T10:01:48;12.55;;;6.45;;
16784;SDS011;8509;52.178;5.404;2024-03-07T10:04:18;12.90;;;6.20;;
16784;SDS011;8509;52.178;5.404;2024-03-07T10:07:13;11.02;;;5.35;;
16784;SDS011;8509;52.178;5.404;2024-03-07T10:09:41;15.35;;;7.20;;
16784;SDS011;8509;52.178;5.404;2024-03-07T10:12:07;11.77;;;5.80;;
16784;SDS011;8509;52.178;5.404;2024-03-07T10:14:49;12.55;;;6.68;;
16784;SDS011;8509;52.178;5.404;2024-03-07T10:19:54;9.95;;;5.28;;
16784;SDS011;8509;52.178;5.404;2024-03-07T10:22:21;15.20;;;6.32;;
16784;SDS011;8509;52.178;5.404;2024-03-07T10:24:51;16.95;;;6.53;;
16784;SDS011;8509;52.178;5.404;2024-03-07T10:27:21;12.07;;;6.20;;
16784;SDS011;8509;52.178;5.404;2024-03-07T10:29:48;12.68;;;6.93;;
16784;SDS011;8509;52.178;5.404;2024-03-07T10:32:19;12.38;;;6.32;;
16784;SDS011;8509;52.178;5.404;2024-03-07T10:34:45;10.75;;;6.03;;
16784;SDS011;8509;52.178;5.404;2024-03-07T10:37:13;10.65;;;5.97;;
16784;SDS011;8509;52.178;5.404;2024-03-07T10:39:42;10.32;;;5.70;;
16784;SDS011;8509;52.178;5.404;2024-03-07T10:42:09;8.60;;;4.93;;
16784;SDS011;8509;52.178;5.404;2024-03-07T10:47:19;9.95;;;5.55;;
16784;SDS011;8509;52.178;5.404;2024-03-07T10:49:52;10.43;;;5.70;;
16784;SDS011;8509;52.178;5.404;2024-03-07T10:52:26;13.65;;;6.65;;
16784;SDS011;8509;52.178;5.404;2024-03-07T10:55:27;16.55;;;5.95;;
16784;SDS011;8509;52.178;5.404;2024-03-07T10:58:40;8.98;;;5.20;;
16784;SDS011;8509;52.178;5.404;2024-03-07T11:00:56;11.05;;;5.07;;
16784;SDS011;8509;52.178;5.404;2024-03-07T11:03:25;10.57;;;5.72;;
16784;SDS011;8509;52.178;5.404;2024-03-07T11:05:52;11.43;;;5.32;;
16784;SDS011;8509;52.178;5.404;2024-03-07T11:08:21;12.57;;;4.30;;
16784;SDS011;8509;52.178;5.404;2024-03-07T11:10:48;11.80;;;6.10;;
16784;SDS011;8509;52.178;5.404;2024-03-07T11:13:14;12.20;;;5.55;;
16784;SDS011;8509;52.178;5.404;2024-03-07T11:15:44;11.50;;;6.10;;
16784;SDS011;8509;52.178;5.404;2024-03-07T11:18:13;10.20;;;4.80;;
16784;SDS011;8509;52.178;5.404;2024-03-07T11:20:39;13.88;;;6.00;;
16784;SDS011;8509;52.178;5.404;2024-03-07T11:26:04;9.20;;;5.30;;
16784;SDS011;8509;52.178;5.404;2024-03-07T11:28:37;10.73;;;5.72;;
16784;SDS011;8509;52.178;5.404;2024-03-07T11:33:39;14.18;;;6.63;;
16784;SDS011;8509;52.178;5.404;2024-03-07T11:36:42;11.93;;;5.90;;
16784;SDS011;8509;52.178;5.404;2024-03-07T11:42:06;12.05;;;5.57;;
16784;SDS011;8509;52.178;5.404;2024-03-07T11:44:33;11.43;;;6.00;;
16784;SDS011;8509;52.178;5.404;2024-03-07T11:47:05;9.70;;;5.13;;
16784;SDS011;8509;52.178;5.404;2024-03-07T11:49:34;15.35;;;6.40;;
16784;SDS011;8509;52.178;5.404;2024-03-07T11:52:03;7.97;;;4.78;;
16784;SDS011;8509;52.178;5.404;2024-03-07T11:54:37;11.45;;;5.95;;
16784;SDS011;8509;52.178;5.404;2024-03-07T11:57:07;19.73;;;6.22;;
16784;SDS011;8509;52.178;5.404;2024-03-07T11:59:41;11.20;;;5.20;;
16784;SDS011;8509;52.178;5.404;2024-03-07T12:02:13;13.65;;;6.40;;
16784;SDS011;8509;52.178;5.404;2024-03-07T12:04:43;12.18;;;5.40;;
16784;SDS011;8509;52.178;5.404;2024-03-07T12:07:09;12.20;;;5.82;;
16784;SDS011;8509;52.178;5.404;2024-03-07T12:09:38;12.43;;;5.13;;
16784;SDS011;8509;52.178;5.404;2024-03-07T12:12:07;9.73;;;5.35;;
16784;SDS011;8509;52.178;5.404;2024-03-07T12:14:34;11.55;;;5.18;;
16784;SDS011;8509;52.178;5.404;2024-03-07T12:17:00;9.43;;;5.43;;
16784;SDS011;8509;52.178;5.404;2024-03-07T12:19:29;12.55;;;5.18;;
16784;SDS011;8509;52.178;5.404;2024-03-07T12:21:59;11.30;;;5.93;;
16784;SDS011;8509;52.178;5.404;2024-03-07T12:24:26;10.75;;;5.85;;
16784;SDS011;8509;52.178;5.404;2024-03-07T12:26:51;11.48;;;5.38;;
16784;SDS011;8509;52.178;5.404;2024-03-07T12:29:25;10.35;;;5.53;;
16784;SDS011;8509;52.178;5.404;2024-03-07T12:31:51;12.20;;;6.15;;
16784;SDS011;8509;52.178;5.404;2024-03-07T12:34:17;13.45;;;5.38;;
16784;SDS011;8509;52.178;5.404;2024-03-07T12:36:43;16.73;;;6.05;;
16784;SDS011;8509;52.178;5.404;2024-03-07T12:39:21;11.75;;;6.28;;
16784;SDS011;8509;52.178;5.404;2024-03-07T12:41:51;10.63;;;5.35;;
16784;SDS011;8509;52.178;5.404;2024-03-07T12:44:20;15.00;;;6.15;;
16784;SDS011;8509;52.178;5.404;2024-03-07T12:46:53;10.43;;;5.45;;
16784;SDS011;8509;52.178;5.404;2024-03-07T12:49:21;15.27;;;5.60;;
16784;SDS011;8509;52.178;5.404;2024-03-07T12:51:52;10.93;;;5.25;;
16784;SDS011;8509;52.178;5.404;2024-03-07T12:54:18;12.13;;;6.00;;
16784;SDS011;8509;52.178;5.404;2024-03-07T12:56:45;9.20;;;5.05;;
16784;SDS011;8509;52.178;5.404;2024-03-07T12:59:10;15.73;;;6.32;;
16784;SDS011;8509;52.178;5.404;2024-03-07T13:01:36;12.18;;;5.43;;
16784;SDS011;8509;52.178;5.404;2024-03-07T13:04:05;7.85;;;4.22;;
16784;SDS011;8509;52.178;5.404;2024-03-07T13:06:35;13.48;;;4.65;;
16784;SDS011;8509;52.178;5.404;2024-03-07T13:09:01;10.52;;;5.65;;
16784;SDS011;8509;52.178;5.404;2024-03-07T13:11:28;11.15;;;4.18;;
16784;SDS011;8509;52.178;5.404;2024-03-07T13:13:57;7.65;;;4.45;;
16784;SDS011;8509;52.178;5.404;2024-03-07T13:16:23;14.13;;;5.38;;
16784;SDS011;8509;52.178;5.404;2024-03-07T13:18:55;9.05;;;4.88;;
16784;SDS011;8509;52.178;5.404;2024-03-07T13:21:21;11.15;;;5.43;;
16784;SDS011;8509;52.178;5.404;2024-03-07T13:23:47;8.70;;;4.38;;
16784;SDS011;8509;52.178;5.404;2024-03-07T13:26:13;12.50;;;5.32;;
16784;SDS011;8509;52.178;5.404;2024-03-07T13:28:46;10.60;;;4.97;;
16784;SDS011;8509;52.178;5.404;2024-03-07T13:31:12;8.23;;;4.63;;
16784;SDS011;8509;52.178;5.404;2024-03-07T13:33:41;8.73;;;4.40;;
16784;SDS011;8509;52.178;5.404;2024-03-07T13:36:07;10.27;;;5.20;;
16784;SDS011;8509;52.178;5.404;2024-03-07T13:38:32;14.20;;;6.70;;
16784;SDS011;8509;52.178;5.404;2024-03-07T13:40:58;11.63;;;6.20;;
16784;SDS011;8509;52.178;5.404;2024-03-07T13:43:26;12.75;;;5.63;;
16784;SDS011;8509;52.178;5.404;2024-03-07T13:45:51;13.77;;;6.13;;
16784;SDS011;8509;52.178;5.404;2024-03-07T13:48:17;13.32;;;5.85;;
16784;SDS011;8509;52.178;5.404;2024-03-07T13:50:44;9.60;;;5.70;;
16784;SDS011;8509;52.178;5.404;2024-03-07T13:53:10;11.73;;;6.57;;
16784;SDS011;8509;52.178;5.404;2024-03-07T13:55:51;10.82;;;5.68;;
16784;SDS011;8509;52.178;5.404;2024-03-07T14:21:08;9.00;;;5.78;;
16784;SDS011;8509;52.178;5.404;2024-03-07T14:23:46;13.77;;;6.45;;
16784;SDS011;8509;52.178;5.404;2024-03-07T14:26:47;11.73;;;5.22;;
16784;SDS011;8509;52.178;5.404;2024-03-07T14:32:16;8.77;;;5.13;;
16784;SDS011;8509;52.178;5.404;2024-03-07T14:37:23;8.88;;;4.78;;
16784;SDS011;8509;52.178;5.404;2024-03-07T14:40:04;8.55;;;4.95;;
16784;SDS011;8509;52.178;5.404;2024-03-07T14:42:36;8.38;;;4.50;;
16784;SDS011;8509;52.178;5.404;2024-03-07T14:45:06;11.15;;;5.07;;
16784;SDS011;8509;52.178;5.404;2024-03-07T14:47:38;9.32;;;5.35;;
16784;SDS011;8509;52.178;5.404;2024-03-07T14:50:04;11.15;;;5.88;;
16784;SDS011;8509;52.178;5.404;2024-03-07T14:52:30;9.68;;;5.38;;
16784;SDS011;8509;52.178;5.404;2024-03-07T14:54:56;8.98;;;4.70;;
16784;SDS011;8509;52.178;5.404;2024-03-07T14:57:22;8.38;;;4.93;;
16784;SDS011;8509;52.178;5.404;2024-03-07T14:59:48;10.15;;;4.68;;
16784;SDS011;8509;52.178;5.404;2024-03-07T15:02:15;12.98;;;5.07;;
16784;SDS011;8509;52.178;5.404;2024-03-07T15:04:41;10.02;;;4.95;;
16784;SDS011;8509;52.178;5.404;2024-03-07T15:07:11;8.32;;;4.07;;
16784;SDS011;8509;52.178;5.404;2024-03-07T15:09:37;7.03;;;4.18;;
16784;SDS011;8509;52.178;5.404;2024-03-07T15:12:06;7.90;;;4.45;;
16784;SDS011;8509;52.178;5.404;2024-03-07T15:14:32;9.70;;;5.22;;
16784;SDS011;8509;52.178;5.404;2024-03-07T15:16:58;9.63;;;5.35;;
16784;SDS011;8509;52.178;5.404;2024-03-07T15:19:23;10.98;;;6.20;;
16784;SDS011;8509;52.178;5.404;2024-03-07T15:21:49;11.80;;;5.25;;
16784;SDS011;8509;52.178;5.404;2024-03-07T15:24:17;9.45;;;4.43;;
16784;SDS011;8509;52.178;5.404;2024-03-07T15:26:46;9.88;;;4.88;;
16784;SDS011;8509;52.178;5.404;2024-03-07T15:29:12;10.25;;;4.97;;
16784;SDS011;8509;52.178;5.404;2024-03-07T15:31:37;10.88;;;5.10;;
16784;SDS011;8509;52.178;5.404;2024-03-07T15:34:03;13.45;;;6.28;;
16784;SDS011;8509;52.178;5.404;2024-03-07T15:36:29;10.65;;;4.88;;
16784;SDS011;8509;52.178;5.404;2024-03-07T15:38:54;11.25;;;5.32;;
16784;SDS011;8509;52.178;5.404;2024-03-07T15:41:22;7.93;;;4.72;;
16784;SDS011;8509;52.178;5.404;2024-03-07T15:43:48;12.30;;;5.13;;
16784;SDS011;8509;52.178;5.404;2024-03-07T15:46:14;7.90;;;4.63;;
16784;SDS011;8509;52.178;5.404;2024-03-07T15:48:44;10.38;;;5.03;;
16784;SDS011;8509;52.178;5.404;2024-03-07T15:51:12;11.07;;;5.40;;